createdAt,value
2023-05-05T00:01:31.064Z,11.13
2023-05-05T00:03:58.008Z,11.19
2023-05-05T00:06:25.078Z,11.25
2023-05-05T00:08:51.897Z,11.07
2023-05-05T00:11:18.793Z,11.09
2023-05-05T00:13:45.864Z,10.99
2023-05-05T00:16:12.687Z,10.92
2023-05-05T00:18:39.619Z,11.01
2023-05-05T00:21:06.963Z,10.97
2023-05-05T00:23:33.913Z,10.92
2023-05-05T00:26:00.910Z,10.87
2023-05-05T00:28:27.912Z,10.90
2023-05-05T00:30:54.921Z,10.92
2023-05-05T00:33:22.177Z,10.97
2023-05-05T00:35:49.172Z,10.96
2023-05-05T00:38:16.123Z,10.97
2023-05-05T00:40:43.245Z,10.96
2023-05-05T00:43:10.243Z,10.90
2023-05-05T00:45:39.147Z,10.86
2023-05-05T00:48:06.714Z,10.83
2023-05-05T00:50:35.007Z,10.83
2023-05-05T00:53:04.121Z,10.84
2023-05-05T00:55:31.828Z,10.73
2023-05-05T00:57:59.796Z,10.86
2023-05-05T01:03:02.424Z,10.84
2023-05-05T01:05:42.309Z,10.90
2023-05-05T01:08:44.066Z,10.90
2023-05-05T01:11:31.202Z,10.82
2023-05-05T01:14:10.140Z,10.86
2023-05-05T01:16:41.745Z,10.76
2023-05-05T01:19:38.551Z,10.74
2023-05-05T01:22:09.142Z,10.70
2023-05-05T01:24:45.271Z,10.65
2023-05-05T01:27:34.345Z,10.65
2023-05-05T01:30:10.770Z,10.57
2023-05-05T01:32:48.091Z,10.52
2023-05-05T01:35:37.983Z,10.51
2023-05-05T01:38:21.856Z,10.45
2023-05-05T01:40:56.457Z,10.40
2023-05-05T01:43:24.512Z,10.34
2023-05-05T01:45:53.393Z,10.24
2023-05-05T01:48:22.397Z,10.29
2023-05-05T01:50:52.312Z,10.34
2023-05-05T01:53:22.843Z,10.48
2023-05-05T01:55:50.879Z,10.51
2023-05-05T01:58:18.608Z,10.57
2023-05-05T02:00:47.304Z,10.63
2023-05-05T02:03:15.984Z,10.60
2023-05-05T02:05:44.726Z,10.62
2023-05-05T02:08:12.941Z,10.67
2023-05-05T02:10:41.128Z,10.52
2023-05-05T02:13:10.792Z,10.48
2023-05-05T02:15:38.770Z,10.49
2023-05-05T02:18:06.672Z,10.33
2023-05-05T02:20:34.282Z,10.28
2023-05-05T02:23:01.464Z,10.27
2023-05-05T02:25:37.252Z,10.22
2023-05-05T02:28:06.312Z,10.33
2023-05-05T02:30:37.744Z,10.30
2023-05-05T02:33:11.609Z,10.26
2023-05-05T02:35:41.153Z,10.16
2023-05-05T02:38:17.460Z,10.19
2023-05-05T02:40:46.850Z,10.14
2023-05-05T02:43:18.411Z,10.16
2023-05-05T02:45:45.903Z,10.19
2023-05-05T02:48:15.701Z,10.23
2023-05-05T02:50:42.628Z,10.27
2023-05-05T02:53:09.755Z,10.15
2023-05-05T02:55:44.031Z,10.01
2023-05-05T02:58:26.082Z,10.01
2023-05-05T03:01:01.662Z,9.92
2023-05-05T03:03:59.773Z,9.91
2023-05-05T03:06:28.863Z,9.94
2023-05-05T03:09:08.254Z,9.97
2023-05-05T03:12:13.111Z,9.97
2023-05-05T03:14:43.408Z,9.86
2023-05-05T03:17:12.299Z,9.92
2023-05-05T03:19:43.278Z,9.83
2023-05-05T03:22:10.975Z,9.81
2023-05-05T03:24:37.909Z,9.84
2023-05-05T03:27:04.848Z,9.87
2023-05-05T03:29:31.808Z,9.87
2023-05-05T03:31:59.508Z,9.89
2023-05-05T03:34:26.334Z,9.86
2023-05-05T03:36:53.354Z,9.89
2023-05-05T03:39:20.150Z,9.87
2023-05-05T03:41:47.299Z,9.95
2023-05-05T03:44:14.136Z,10.01
2023-05-05T03:46:40.936Z,10.01
2023-05-05T03:49:09.919Z,10.08
2023-05-05T03:51:37.548Z,10.14
2023-05-05T03:54:04.738Z,10.15
2023-05-05T03:56:31.828Z,10.35
2023-05-05T03:58:58.933Z,10.53
2023-05-05T04:01:25.888Z,10.58
2023-05-05T04:03:53.035Z,10.76
2023-05-05T04:06:19.957Z,10.48
2023-05-05T04:08:46.789Z,10.59
2023-05-05T04:11:13.690Z,11.00
2023-05-05T04:13:40.599Z,11.26
2023-05-05T04:16:08.988Z,11.12
2023-05-05T04:18:36.350Z,11.17
2023-05-05T04:21:03.384Z,11.22
2023-05-05T04:23:30.301Z,11.35
2023-05-05T04:25:57.680Z,11.56
2023-05-05T04:28:24.660Z,11.69
2023-05-05T04:30:51.735Z,11.84
2023-05-05T04:33:18.673Z,11.85
2023-05-05T04:35:45.661Z,12.13
2023-05-05T04:38:12.690Z,12.53
2023-05-05T04:40:41.129Z,12.73
2023-05-05T04:43:08.019Z,12.85
2023-05-05T04:45:34.824Z,12.95
2023-05-05T04:48:01.988Z,13.12
2023-05-05T04:50:28.878Z,13.50
2023-05-05T04:52:56.504Z,13.60
2023-05-05T04:55:23.490Z,13.63
2023-05-05T04:57:50.342Z,13.61
2023-05-05T05:00:17.448Z,13.73
2023-05-05T05:02:44.722Z,13.95
2023-05-05T05:05:11.646Z,13.55
2023-05-05T05:07:38.417Z,13.76
2023-05-05T05:10:06.034Z,13.52
2023-05-05T05:12:33.061Z,13.79
2023-05-05T05:14:59.906Z,14.23
2023-05-05T05:17:27.163Z,14.28
2023-05-05T05:19:55.472Z,14.61
2023-05-05T05:22:22.398Z,15.09
2023-05-05T05:24:49.257Z,15.48
2023-05-05T05:27:16.273Z,15.98
2023-05-05T05:29:43.891Z,16.24
2023-05-05T05:32:11.019Z,16.43
2023-05-05T05:34:37.876Z,16.88
2023-05-05T05:37:04.718Z,17.43
2023-05-05T05:39:31.589Z,17.81
2023-05-05T05:41:58.400Z,17.81
2023-05-05T05:44:25.172Z,17.93
2023-05-05T05:46:52.134Z,18.10
2023-05-05T05:49:18.952Z,18.69
2023-05-05T05:51:45.766Z,19.16
2023-05-05T05:54:12.719Z,19.26
2023-05-05T05:56:39.754Z,19.36
2023-05-05T05:59:08.831Z,19.22
2023-05-05T06:01:35.896Z,19.57
2023-05-05T06:04:02.794Z,19.56
2023-05-05T06:06:29.755Z,20.09
2023-05-05T06:08:56.706Z,20.42
2023-05-05T06:11:23.534Z,20.39
2023-05-05T06:13:50.736Z,20.61
2023-05-05T06:16:17.635Z,20.96
2023-05-05T06:18:44.549Z,20.88
2023-05-05T06:21:12.340Z,21.05
2023-05-05T06:23:39.448Z,21.09
2023-05-05T06:26:06.409Z,21.48
2023-05-05T06:28:33.358Z,21.06
2023-05-05T06:33:27.268Z,21.67
2023-05-05T06:35:54.490Z,21.21
2023-05-05T06:38:21.858Z,20.96
2023-05-05T06:40:51.843Z,21.03
2023-05-05T06:43:18.811Z,21.43
2023-05-05T06:45:46.253Z,21.62
2023-05-05T06:48:13.182Z,21.47
2023-05-05T06:50:40.041Z,21.85
2023-05-05T06:53:06.956Z,21.50
2023-05-05T06:55:33.816Z,21.29
2023-05-05T06:58:01.038Z,21.58
2023-05-05T07:00:27.929Z,21.92
2023-05-05T07:02:54.835Z,21.73
2023-05-05T07:05:21.935Z,21.65
2023-05-05T07:07:53.912Z,21.63
2023-05-05T07:10:22.796Z,22.29
2023-05-05T07:12:50.460Z,22.17
2023-05-05T07:15:27.384Z,21.54
2023-05-05T07:17:56.723Z,21.94
2023-05-05T07:20:24.285Z,21.88
2023-05-05T07:22:51.312Z,21.76
2023-05-05T07:25:18.380Z,21.26
2023-05-05T07:27:45.584Z,21.56
2023-05-05T07:30:15.531Z,21.54
2023-05-05T07:32:45.090Z,21.79
2023-05-05T07:35:12.072Z,21.39
2023-05-05T07:37:38.850Z,21.82
2023-05-05T07:40:06.563Z,22.81
2023-05-05T07:42:33.520Z,22.72
2023-05-05T07:45:00.905Z,22.87
2023-05-05T07:47:27.721Z,22.87
2023-05-05T07:49:54.952Z,23.02
2023-05-05T07:52:33.209Z,23.45
2023-05-05T07:55:08.850Z,24.22
2023-05-05T07:57:35.722Z,23.78
2023-05-05T08:00:02.927Z,23.64
2023-05-05T08:02:30.151Z,23.17
2023-05-05T08:04:57.111Z,23.58
2023-05-05T08:07:24.021Z,23.04
2023-05-05T08:09:51.018Z,22.71
2023-05-05T08:12:19.270Z,22.37
2023-05-05T08:14:46.108Z,21.47
2023-05-05T08:17:12.975Z,21.76
2023-05-05T08:19:39.866Z,21.98
2023-05-05T08:22:06.711Z,22.47
2023-05-05T08:24:33.618Z,22.56
2023-05-05T08:27:00.856Z,22.20
2023-05-05T08:29:27.759Z,22.23
2023-05-05T08:31:54.762Z,21.86
2023-05-05T08:34:21.529Z,21.61
2023-05-05T08:36:50.523Z,21.66
2023-05-05T08:39:17.555Z,21.45
2023-05-05T08:41:44.603Z,21.99
2023-05-05T08:44:11.851Z,22.35
2023-05-05T08:46:40.119Z,22.66
2023-05-05T08:49:14.077Z,23.21
2023-05-05T08:51:44.508Z,23.59
2023-05-05T08:54:18.032Z,24.08
2023-05-05T08:56:47.540Z,24.07
2023-05-05T08:59:15.776Z,24.28
2023-05-05T09:01:44.560Z,24.42
2023-05-05T09:04:11.551Z,23.98
2023-05-05T09:06:38.593Z,24.41
2023-05-05T09:09:06.817Z,24.26
2023-05-05T09:11:35.545Z,24.38
2023-05-05T09:14:02.512Z,24.50
2023-05-05T09:16:29.551Z,24.55
2023-05-05T09:19:04.134Z,24.20
2023-05-05T09:21:32.339Z,24.24
2023-05-05T09:24:10.051Z,23.75
2023-05-05T09:26:39.727Z,23.94
2023-05-05T09:29:06.810Z,24.52
2023-05-05T09:31:35.222Z,25.10
2023-05-05T09:34:13.754Z,25.56
2023-05-05T09:36:47.623Z,25.37
2023-05-05T09:39:20.334Z,24.91
2023-05-05T09:41:47.417Z,24.82
2023-05-05T09:44:17.632Z,25.36
2023-05-05T09:46:55.425Z,25.47
2023-05-05T09:49:27.180Z,24.52
2023-05-05T09:51:55.239Z,23.62
2023-05-05T09:54:29.812Z,24.23
2023-05-05T09:56:57.493Z,24.45
2023-05-05T09:59:24.822Z,24.22
2023-05-05T10:01:52.473Z,23.29
2023-05-05T10:04:28.169Z,23.67
2023-05-05T10:06:56.899Z,24.32
2023-05-05T10:09:28.474Z,23.64
2023-05-05T10:12:00.054Z,24.48
2023-05-05T10:14:27.738Z,24.35
2023-05-05T10:16:55.742Z,24.89
2023-05-05T10:19:24.353Z,24.41
2023-05-05T10:21:53.443Z,23.99
2023-05-05T10:24:23.019Z,24.50
2023-05-05T10:26:52.124Z,24.47
2023-05-05T10:29:57.213Z,23.74
2023-05-05T10:32:55.953Z,23.53
2023-05-05T10:35:26.697Z,24.35
2023-05-05T10:37:54.715Z,24.41
2023-05-05T10:40:25.308Z,24.69
2023-05-05T10:42:54.414Z,24.90
2023-05-05T10:45:21.542Z,24.88
2023-05-05T10:47:51.306Z,24.73
2023-05-05T10:50:33.585Z,25.18
2023-05-05T10:53:12.577Z,25.31
2023-05-05T10:55:52.956Z,25.37
2023-05-05T10:58:44.103Z,24.59
2023-05-05T11:01:36.563Z,25.22
2023-05-05T11:04:19.392Z,25.08
2023-05-05T11:07:08.773Z,25.11
2023-05-05T11:09:55.196Z,25.19
2023-05-05T11:12:22.192Z,25.25
2023-05-05T11:15:26.942Z,25.29
2023-05-05T11:17:55.630Z,25.04
2023-05-05T11:20:57.735Z,24.53
2023-05-05T11:23:25.570Z,24.53
2023-05-05T11:25:53.217Z,24.92
2023-05-05T11:28:25.954Z,25.14
2023-05-05T11:30:56.063Z,24.73
2023-05-05T11:33:37.182Z,24.81
2023-05-05T11:36:08.762Z,25.03
2023-05-05T11:38:57.285Z,25.13
2023-05-05T11:41:33.359Z,24.80
2023-05-05T11:44:12.182Z,24.87
2023-05-05T11:47:04.546Z,23.97
2023-05-05T11:49:38.954Z,23.57
2023-05-05T11:52:10.352Z,23.31
2023-05-05T11:54:40.670Z,23.65
2023-05-05T11:57:08.579Z,24.46
2023-05-05T11:59:37.692Z,23.60
2023-05-05T12:02:05.251Z,23.76
2023-05-05T12:04:32.426Z,24.35
2023-05-05T12:07:00.193Z,23.90
2023-05-05T12:09:27.681Z,23.55
2023-05-05T12:11:56.624Z,22.92
2023-05-05T12:14:24.884Z,23.41
2023-05-05T12:16:58.713Z,23.63
2023-05-05T12:19:33.133Z,24.05
2023-05-05T12:22:01.948Z,24.39
2023-05-05T12:24:30.581Z,24.01
2023-05-05T12:27:11.119Z,24.37
2023-05-05T12:29:38.429Z,24.20
2023-05-05T12:32:05.764Z,24.75
2023-05-05T12:34:33.308Z,24.51
2023-05-05T12:37:01.129Z,24.90
2023-05-05T12:39:37.481Z,24.96
2023-05-05T12:42:05.145Z,25.01
2023-05-05T12:44:36.409Z,24.78
2023-05-05T12:47:03.915Z,24.70
2023-05-05T12:49:34.236Z,25.03
2023-05-05T12:52:02.782Z,25.06
2023-05-05T12:54:30.049Z,24.41
2023-05-05T12:56:57.469Z,24.42
2023-05-05T12:59:24.579Z,24.60
2023-05-05T13:02:17.250Z,24.61
2023-05-05T13:04:52.614Z,24.33
2023-05-05T13:07:21.252Z,23.97
2023-05-05T13:09:49.570Z,24.30
2023-05-05T13:12:18.095Z,24.49
2023-05-05T13:14:46.827Z,24.37
2023-05-05T13:17:14.293Z,24.38
2023-05-05T13:19:47.673Z,24.02
2023-05-05T13:22:14.649Z,24.17
2023-05-05T13:24:51.520Z,24.15
2023-05-05T13:27:20.135Z,23.96
2023-05-05T13:29:46.988Z,23.56
2023-05-05T13:32:14.086Z,24.04
2023-05-05T13:34:41.711Z,24.20
2023-05-05T13:37:08.843Z,24.24
2023-05-05T13:39:36.108Z,24.04
2023-05-05T13:42:03.206Z,24.16
2023-05-05T13:44:30.014Z,24.08
2023-05-05T13:46:56.965Z,24.22
2023-05-05T13:49:24.062Z,24.12
2023-05-05T13:51:50.932Z,24.20
2023-05-05T13:54:17.846Z,24.30
2023-05-05T13:56:44.781Z,24.34
2023-05-05T13:59:11.633Z,24.34
2023-05-05T14:01:38.708Z,24.43
2023-05-05T14:04:06.115Z,24.28
2023-05-05T14:06:33.878Z,24.53
2023-05-05T14:09:00.959Z,24.67
2023-05-05T14:11:27.967Z,24.34
2023-05-05T14:13:54.961Z,24.40
2023-05-05T14:16:22.119Z,24.19
2023-05-05T14:18:49.156Z,24.12
2023-05-05T14:21:15.964Z,24.01
2023-05-05T14:23:42.845Z,24.15
2023-05-05T14:26:09.852Z,23.99
2023-05-05T14:28:36.721Z,23.79
2023-05-05T14:31:03.607Z,24.10
2023-05-05T14:33:30.507Z,24.20
2023-05-05T14:35:57.677Z,24.19
2023-05-05T14:38:24.710Z,23.91
2023-05-05T14:40:54.746Z,23.94
2023-05-05T14:43:22.039Z,24.04
2023-05-05T14:45:49.009Z,24.07
2023-05-05T14:48:16.040Z,23.89
2023-05-05T14:50:42.927Z,23.88
2023-05-05T14:53:09.774Z,24.04
2023-05-05T14:55:37.422Z,24.14
2023-05-05T14:58:04.310Z,23.92
2023-05-05T15:00:31.274Z,23.98
2023-05-05T15:02:58.207Z,23.86
2023-05-05T15:05:25.114Z,23.91
2023-05-05T15:07:52.104Z,23.72
2023-05-05T15:10:21.227Z,23.56
2023-05-05T15:12:49.056Z,23.57
2023-05-05T15:15:15.927Z,23.59
2023-05-05T15:17:43.323Z,23.47
2023-05-05T15:20:10.635Z,23.52
2023-05-05T15:22:37.608Z,23.55
2023-05-05T15:25:04.972Z,23.41
2023-05-05T15:27:31.915Z,23.35
2023-05-05T15:29:58.836Z,23.25
2023-05-05T15:32:25.842Z,23.06
2023-05-05T15:34:52.760Z,22.88
2023-05-05T15:37:19.576Z,22.96
2023-05-05T15:39:46.516Z,22.94
2023-05-05T15:42:13.493Z,22.92
2023-05-05T15:44:40.373Z,22.92
2023-05-05T15:47:07.644Z,22.84
2023-05-05T15:49:34.622Z,22.60
2023-05-05T15:52:01.530Z,22.68
2023-05-05T15:54:28.553Z,22.73
2023-05-05T15:56:55.454Z,22.73
2023-05-05T15:59:22.952Z,22.69
2023-05-05T16:01:49.833Z,22.80
2023-05-05T16:04:16.818Z,22.81
2023-05-05T16:06:43.821Z,22.63
2023-05-05T16:09:10.735Z,22.48
2023-05-05T16:11:37.650Z,22.48
2023-05-05T16:14:04.553Z,22.38
2023-05-05T16:16:31.601Z,22.21
2023-05-05T16:18:58.523Z,22.13
2023-05-05T16:21:25.766Z,22.03
2023-05-05T16:23:52.664Z,21.79
2023-05-05T16:26:20.032Z,21.89
2023-05-05T16:28:47.084Z,21.94
2023-05-05T16:31:14.345Z,21.94
2023-05-05T16:33:43.661Z,21.89
2023-05-05T16:36:12.503Z,21.82
2023-05-05T16:38:40.517Z,21.64
2023-05-05T16:41:07.875Z,21.64
2023-05-05T16:43:37.283Z,21.63
2023-05-05T16:46:04.595Z,21.56
2023-05-05T16:48:31.804Z,21.46
2023-05-05T16:50:58.889Z,21.38
2023-05-05T16:53:26.151Z,21.34
2023-05-05T16:55:53.737Z,21.27
2023-05-05T16:58:22.942Z,21.24
2023-05-05T17:00:51.128Z,21.16
2023-05-05T17:03:21.646Z,21.07
2023-05-05T17:05:50.292Z,20.98
2023-05-05T17:08:17.604Z,20.91
2023-05-05T17:10:45.757Z,20.84
2023-05-05T17:13:13.985Z,20.76
2023-05-05T17:15:41.568Z,20.65
2023-05-05T17:18:08.931Z,20.55
2023-05-05T17:20:38.756Z,20.47
2023-05-05T17:23:05.807Z,20.40
2023-05-05T17:25:32.694Z,20.23
2023-05-05T17:27:59.535Z,20.20
2023-05-05T17:30:26.859Z,20.11
2023-05-05T17:32:53.839Z,20.09
2023-05-05T17:35:21.401Z,20.00
2023-05-05T17:37:48.386Z,19.96
2023-05-05T17:40:15.324Z,19.85
2023-05-05T17:42:42.287Z,19.79
2023-05-05T17:45:09.938Z,19.76
2023-05-05T17:47:37.543Z,19.67
2023-05-05T17:50:05.101Z,19.57
2023-05-05T17:52:32.069Z,19.44
2023-05-05T17:54:58.876Z,19.29
2023-05-05T17:57:25.670Z,19.15
2023-05-05T17:59:53.769Z,19.04
2023-05-05T18:02:20.956Z,18.94
2023-05-05T18:04:47.935Z,18.83
2023-05-05T18:07:14.957Z,18.66
2023-05-05T18:09:42.358Z,18.54
2023-05-05T18:12:09.232Z,18.42
2023-05-05T18:14:36.404Z,18.29
2023-05-05T18:17:03.333Z,18.24
2023-05-05T18:19:30.341Z,18.20
2023-05-05T18:21:59.993Z,18.07
2023-05-05T18:24:28.214Z,18.00
2023-05-05T18:26:55.055Z,17.52
2023-05-05T18:29:22.559Z,17.71
2023-05-05T18:31:53.155Z,17.56
2023-05-05T18:34:21.017Z,17.54
2023-05-05T18:36:51.010Z,17.55
2023-05-05T18:39:18.031Z,17.60
2023-05-05T18:41:44.939Z,17.64
2023-05-05T18:44:12.120Z,17.57
2023-05-05T18:46:39.011Z,17.54
2023-05-05T18:49:05.965Z,17.58
2023-05-05T18:51:32.895Z,17.52
2023-05-05T18:54:01.026Z,17.42
2023-05-05T18:56:28.034Z,17.41
2023-05-05T18:58:54.988Z,17.32
2023-05-05T19:01:22.317Z,17.29
2023-05-05T19:03:49.979Z,17.22
2023-05-05T19:06:17.634Z,17.19
2023-05-05T19:08:45.746Z,17.09
2023-05-05T19:11:14.686Z,16.99
2023-05-05T19:13:42.046Z,16.91
2023-05-05T19:16:08.913Z,16.99
2023-05-05T19:18:35.791Z,16.95
2023-05-05T19:21:02.776Z,16.87
2023-05-05T19:23:29.567Z,16.87
2023-05-05T19:25:56.539Z,16.73
2023-05-05T19:28:23.451Z,16.72
2023-05-05T19:30:50.261Z,16.64
2023-05-05T19:33:17.102Z,16.56
2023-05-05T19:35:44.770Z,16.56
2023-05-05T19:38:12.132Z,16.46
2023-05-05T19:40:39.887Z,16.50
2023-05-05T19:43:07.641Z,16.40
2023-05-05T19:45:34.499Z,16.36
2023-05-05T19:48:01.888Z,16.41
2023-05-05T19:50:30.883Z,16.34
2023-05-05T19:52:58.166Z,16.27
2023-05-05T19:55:25.067Z,16.17
2023-05-05T19:57:52.520Z,16.14
2023-05-05T20:00:19.923Z,16.05
2023-05-05T20:02:48.724Z,15.98
2023-05-05T20:05:17.611Z,16.01
2023-05-05T20:07:46.446Z,15.92
2023-05-05T20:10:13.722Z,15.94
2023-05-05T20:12:47.940Z,15.83
2023-05-05T20:15:19.407Z,15.73
2023-05-05T20:17:47.773Z,15.72
2023-05-05T20:20:21.146Z,15.65
2023-05-05T20:22:49.207Z,15.61
2023-05-05T20:25:18.993Z,15.59
2023-05-05T20:27:46.042Z,15.50
2023-05-05T20:30:13.551Z,15.49
2023-05-05T20:32:40.816Z,15.45
2023-05-05T20:35:08.476Z,15.44
2023-05-05T20:37:35.413Z,15.40
2023-05-05T20:40:02.464Z,15.43
2023-05-05T20:42:29.925Z,15.37
2023-05-05T20:44:57.088Z,15.33
2023-05-05T20:47:24.463Z,15.41
2023-05-05T20:49:52.540Z,15.32
2023-05-05T20:52:19.622Z,15.23
2023-05-05T20:54:46.635Z,15.08
2023-05-05T20:57:13.532Z,15.01
2023-05-05T20:59:40.543Z,15.07
2023-05-05T21:02:07.893Z,15.12
2023-05-05T21:04:34.840Z,15.06
2023-05-05T21:07:01.912Z,15.08
2023-05-05T21:09:29.139Z,15.10
2023-05-05T21:11:55.961Z,15.06
2023-05-05T21:14:23.587Z,15.08
2023-05-05T21:16:50.687Z,15.01
2023-05-05T21:19:29.849Z,14.91
2023-05-05T21:21:59.284Z,14.92
2023-05-05T21:24:26.230Z,14.82
2023-05-05T21:26:53.089Z,14.82
2023-05-05T21:29:19.918Z,14.69
2023-05-05T21:31:46.721Z,14.68
2023-05-05T21:34:13.601Z,14.60
2023-05-05T21:36:40.375Z,14.56
2023-05-05T21:39:07.200Z,14.60
2023-05-05T21:41:34.050Z,14.48
2023-05-05T21:44:00.923Z,14.63
2023-05-05T21:46:27.902Z,14.60
2023-05-05T21:48:54.842Z,14.59
2023-05-05T21:51:23.556Z,14.53
2023-05-05T21:53:50.521Z,14.37
2023-05-05T21:56:18.495Z,14.33
2023-05-05T21:58:45.406Z,14.28
2023-05-05T22:01:12.296Z,14.18
2023-05-05T22:03:39.330Z,14.11
2023-05-05T22:06:07.331Z,14.17
2023-05-05T22:08:34.213Z,14.08
2023-05-05T22:11:07.240Z,14.02
2023-05-05T22:13:34.130Z,13.87
2023-05-05T22:16:09.820Z,13.90
2023-05-05T22:18:37.072Z,13.80
2023-05-05T22:21:09.946Z,13.81
2023-05-05T22:23:42.070Z,13.73
2023-05-05T22:26:12.326Z,13.70
2023-05-05T22:28:39.275Z,13.62
2023-05-05T22:31:06.173Z,13.64
2023-05-05T22:33:34.322Z,13.52
2023-05-05T22:36:02.320Z,13.48
2023-05-05T22:38:29.441Z,13.57
2023-05-05T22:40:57.437Z,13.50
2023-05-05T22:43:24.333Z,13.45
2023-05-05T22:45:51.402Z,13.41
2023-05-05T22:48:18.450Z,13.40
2023-05-05T22:50:45.845Z,13.39
2023-05-05T22:53:14.720Z,13.35
2023-05-05T22:55:42.693Z,13.42
2023-05-05T22:58:10.634Z,13.31
2023-05-05T23:00:37.653Z,13.35
2023-05-05T23:03:04.873Z,13.36
2023-05-05T23:05:32.105Z,13.31
2023-05-05T23:08:01.420Z,13.26
2023-05-05T23:10:30.232Z,13.11
2023-05-05T23:12:57.148Z,13.18
2023-05-05T23:15:25.159Z,13.28
2023-05-05T23:17:54.262Z,13.30
2023-05-05T23:20:21.558Z,13.22
2023-05-05T23:22:48.529Z,13.21
2023-05-05T23:25:15.314Z,13.25
2023-05-05T23:27:44.036Z,13.31
2023-05-05T23:30:17.054Z,13.24
2023-05-05T23:32:45.128Z,13.19
2023-05-05T23:35:12.328Z,13.13
2023-05-05T23:37:45.516Z,13.15
2023-05-05T23:40:13.491Z,13.25
2023-05-05T23:42:42.416Z,13.27
2023-05-05T23:45:10.034Z,13.29
2023-05-05T23:47:37.254Z,13.28
2023-05-05T23:50:04.544Z,13.24
2023-05-05T23:52:31.492Z,13.27
2023-05-05T23:54:59.552Z,13.30
2023-05-05T23:57:26.516Z,13.23
2023-05-05T23:59:59.478Z,13.29
